Galloway, Ohio
Current Conditions -  °F | °C
As of 2:15 AM on Saturday 29 Nov 2014 (Local Time) from KTZR Reporting Station
Clear Clear  
Wind Chill: 23°   Ceiling: Unl
Heat Index: 30°   Visibility: 10mi
Dew Point: 21°   Wind: 8mph
Humidity: 69%   Direction: 150°SSE
Pressure: 30.09"   Gusts: NA
Location:  39.91°N, 83.16°W
Report Text: KTZR 290715Z AUTO 15007KT 10SM CLR M01/M06 A3009 RMK AO2 T10101060
Loading
Personal Weather Stations






























Interactive Weather Map New forecast layout! Learn more

10-Day Weather Forecast

Advertisements
Track Severe Weather on mobile